createdAt,value
2023-04-07T00:00:32.531Z,51.0500
2023-04-07T00:01:33.066Z,50.9759
2023-04-07T00:02:33.561Z,51.3909
2023-04-07T00:03:34.061Z,51.8776
2023-04-07T00:04:34.633Z,52.1792
2023-04-07T00:05:35.138Z,52.4981
2023-04-07T00:06:35.532Z,52.5563
2023-04-07T00:07:44.974Z,52.3610
2023-04-07T00:08:37.386Z,52.7305
2023-04-07T00:09:37.828Z,53.0783
2023-04-07T00:10:38.321Z,52.8063
2023-04-07T00:11:38.735Z,52.5969
2023-04-07T00:12:39.153Z,52.6627
2023-04-07T00:13:39.587Z,52.7782
2023-04-07T00:14:39.997Z,52.6564
2023-04-07T00:15:40.427Z,52.5587
2023-04-07T00:16:40.884Z,52.1661
2023-04-07T00:17:41.376Z,51.9780
2023-04-07T00:18:41.839Z,53.1658
2023-04-07T00:19:42.265Z,53.5093
2023-04-07T00:20:42.672Z,52.9510
2023-04-07T00:21:43.112Z,52.6614
2023-04-07T00:22:43.725Z,52.4536
2023-04-07T00:23:44.200Z,51.3784
2023-04-07T00:24:44.621Z,51.8839
2023-04-07T00:25:45.053Z,52.3985
2023-04-07T00:26:45.458Z,52.4762
2023-04-07T00:27:45.924Z,51.8199
2023-04-07T00:28:46.339Z,52.1878
2023-04-07T00:29:46.739Z,52.1522
2023-04-07T00:30:47.203Z,52.5177
2023-04-07T00:31:47.599Z,53.2226
2023-04-07T00:32:48.062Z,53.3346
2023-04-07T00:33:48.575Z,53.8409
2023-04-07T00:34:49.010Z,55.0753
2023-04-07T00:35:49.523Z,56.9913
2023-04-07T00:36:49.953Z,57.5584
2023-04-07T00:37:50.388Z,57.5798
2023-04-07T00:38:50.904Z,57.5790
2023-04-07T00:39:51.385Z,57.2128
2023-04-07T00:40:51.836Z,56.5254
2023-04-07T00:41:52.218Z,55.9882
2023-04-07T00:42:52.713Z,55.6639
2023-04-07T00:43:53.487Z,53.6338
2023-04-07T00:44:54.345Z,54.0051
2023-04-07T00:45:54.803Z,53.8534
2023-04-07T00:46:55.217Z,53.8897
2023-04-07T00:47:55.677Z,53.7621
2023-04-07T00:48:56.077Z,53.6592
2023-04-07T00:49:56.522Z,53.4173
2023-04-07T00:50:57.001Z,53.7545
2023-04-07T00:51:57.393Z,53.9973
2023-04-07T00:52:57.892Z,54.3035
2023-04-07T00:53:58.378Z,55.2499
2023-04-07T00:54:58.865Z,55.4850
2023-04-07T00:55:59.321Z,54.9135
2023-04-07T00:56:59.788Z,54.6167
2023-04-07T00:58:00.257Z,55.0922
2023-04-07T00:59:00.724Z,55.6160
2023-04-07T01:00:01.219Z,56.1096
2023-04-07T01:01:01.685Z,56.2255
2023-04-07T01:02:02.176Z,56.2498
2023-04-07T01:03:02.918Z,56.2635
2023-04-07T01:04:03.791Z,56.3664
2023-04-07T01:05:04.309Z,56.4533
2023-04-07T01:06:04.779Z,56.4074
2023-04-07T01:07:05.260Z,56.0605
2023-04-07T01:08:05.640Z,55.6586
2023-04-07T01:09:06.144Z,55.1888
2023-04-07T01:10:06.589Z,55.4459
2023-04-07T01:11:07.061Z,55.4522
2023-04-07T01:12:07.488Z,55.4909
2023-04-07T01:13:07.900Z,55.1668
2023-04-07T01:14:08.388Z,54.9465
2023-04-07T01:15:08.845Z,54.6158
2023-04-07T01:16:09.303Z,54.7599
2023-04-07T01:17:09.703Z,54.6967
2023-04-07T01:18:10.169Z,54.7969
2023-04-07T01:19:10.614Z,54.7048
2023-04-07T01:20:11.090Z,54.6821
2023-04-07T01:21:11.516Z,54.1101
2023-04-07T01:22:12.020Z,54.2241
2023-04-07T01:23:12.418Z,54.2028
2023-04-07T01:24:12.858Z,54.5163
2023-04-07T01:25:13.378Z,54.5649
2023-04-07T01:26:13.842Z,54.0402
2023-04-07T01:27:14.270Z,53.5738
2023-04-07T01:28:14.720Z,53.1453
2023-04-07T01:29:15.385Z,53.2183
2023-04-07T01:30:15.786Z,53.2483
2023-04-07T01:31:16.268Z,53.4338
2023-04-07T01:32:16.600Z,53.6982
2023-04-07T01:33:17.154Z,53.9734
2023-04-07T01:34:17.621Z,54.0160
2023-04-07T01:35:18.058Z,53.6089
2023-04-07T01:36:18.449Z,53.9563
2023-04-07T01:37:18.941Z,54.0197
2023-04-07T01:38:19.396Z,53.9492
2023-04-07T01:39:19.827Z,53.9906
2023-04-07T01:40:20.226Z,53.8214
2023-04-07T01:41:20.695Z,53.7682
2023-04-07T01:42:21.330Z,54.1781
2023-04-07T01:43:21.781Z,54.5987
2023-04-07T01:44:22.268Z,54.5515
2023-04-07T01:45:22.728Z,54.2315
2023-04-07T01:46:23.112Z,54.1158
2023-04-07T01:47:23.744Z,54.0081
2023-04-07T01:48:24.319Z,54.2067
2023-04-07T01:49:24.773Z,54.1442
2023-04-07T01:50:25.223Z,53.9476
2023-04-07T01:51:25.660Z,53.8846
2023-04-07T01:52:26.115Z,54.1527
2023-04-07T01:53:26.625Z,54.2283
2023-04-07T01:54:27.045Z,54.4918
2023-04-07T01:55:27.472Z,54.7800
2023-04-07T01:56:27.934Z,54.7127
2023-04-07T01:57:28.424Z,54.5779
2023-04-07T01:58:28.902Z,54.5671
2023-04-07T01:59:29.523Z,54.6214
2023-04-07T02:00:30.013Z,54.6920
2023-04-07T02:01:30.531Z,54.8185
2023-04-07T02:02:31.142Z,54.7194
2023-04-07T02:03:31.784Z,54.8278
2023-04-07T02:04:32.287Z,55.0322
2023-04-07T02:05:32.789Z,55.2991
2023-04-07T02:06:33.260Z,55.3973
2023-04-07T02:07:33.734Z,55.5277
2023-04-07T02:08:34.261Z,55.6512
2023-04-07T02:09:34.735Z,55.8497
2023-04-07T02:10:35.347Z,55.9390
2023-04-07T02:11:35.765Z,55.9741
2023-04-07T02:12:36.358Z,56.4519
2023-04-07T02:13:36.945Z,58.0044
2023-04-07T02:14:37.427Z,58.6626
2023-04-07T02:15:38.135Z,59.7092
2023-04-07T02:16:38.676Z,59.5382
2023-04-07T02:17:39.254Z,58.8400
2023-04-07T02:18:39.772Z,58.5138
2023-04-07T02:19:40.274Z,59.0668
2023-04-07T02:20:40.752Z,59.2704
2023-04-07T02:21:41.224Z,59.3804
2023-04-07T02:22:41.738Z,58.9151
2023-04-07T02:23:42.190Z,58.8890
2023-04-07T02:24:42.693Z,59.2094
2023-04-07T02:25:43.321Z,60.4497
2023-04-07T02:26:43.766Z,59.9409
2023-04-07T02:27:44.243Z,60.2492
2023-04-07T02:28:44.732Z,59.0279
2023-04-07T02:29:45.395Z,58.7620
2023-04-07T02:30:45.898Z,59.0393
2023-04-07T02:31:46.484Z,60.4789
2023-04-07T02:32:46.980Z,59.3634
2023-04-07T02:33:47.549Z,59.9297
2023-04-07T02:34:48.074Z,59.5066
2023-04-07T02:35:48.589Z,59.5127
2023-04-07T02:36:49.185Z,58.9004
2023-04-07T02:37:49.715Z,58.7319
2023-04-07T02:38:50.176Z,58.3269
2023-04-07T02:39:50.724Z,58.5311
2023-04-07T02:40:51.242Z,58.6388
2023-04-07T02:41:51.892Z,58.5433
2023-04-07T02:42:52.353Z,58.2671
2023-04-07T02:43:53.058Z,58.1715
2023-04-07T02:44:53.860Z,58.3126
2023-04-07T02:45:54.398Z,58.1479
2023-04-07T02:46:54.961Z,58.0413
2023-04-07T02:47:55.521Z,57.6790
2023-04-07T02:48:55.976Z,57.2985
2023-04-07T02:49:56.434Z,56.9885
2023-04-07T02:50:56.962Z,57.0998
2023-04-07T02:51:57.454Z,56.8347
2023-04-07T02:52:57.896Z,56.6438
2023-04-07T02:53:58.466Z,56.9347
2023-04-07T02:54:58.944Z,56.3410
2023-04-07T02:55:59.435Z,56.3320
2023-04-07T02:57:00.012Z,56.7448
2023-04-07T02:58:00.570Z,56.8024
2023-04-07T02:59:01.022Z,56.9130
2023-04-07T03:00:01.569Z,56.8972
2023-04-07T03:01:02.059Z,56.6946
2023-04-07T03:02:02.794Z,57.2455
2023-04-07T03:03:03.799Z,57.0666
2023-04-07T03:04:04.437Z,57.0920
2023-04-07T03:05:04.985Z,57.0072
2023-04-07T03:06:05.457Z,56.8040
2023-04-07T03:07:06.026Z,56.7329
2023-04-07T03:08:06.486Z,57.2208
2023-04-07T03:09:07.013Z,57.2157
2023-04-07T03:10:07.574Z,57.5119
2023-04-07T03:11:08.089Z,57.6718
2023-04-07T03:12:08.665Z,57.8826
2023-04-07T03:13:09.125Z,58.1051
2023-04-07T03:14:09.605Z,58.1442
2023-04-07T03:15:10.146Z,58.0220
2023-04-07T03:16:10.672Z,58.1065
2023-04-07T03:17:11.242Z,58.0250
2023-04-07T03:18:11.875Z,58.1565
2023-04-07T03:19:12.306Z,58.2781
2023-04-07T03:20:12.825Z,58.5005
2023-04-07T03:21:13.308Z,58.6706
2023-04-07T03:22:13.789Z,58.3371
2023-04-07T03:23:14.289Z,58.1325
2023-04-07T03:24:14.749Z,58.2034
2023-04-07T03:25:15.369Z,57.9999
2023-04-07T03:26:15.854Z,58.1947
2023-04-07T03:27:16.371Z,58.2555
2023-04-07T03:28:16.831Z,58.5477
2023-04-07T03:29:18.224Z,58.6225
2023-04-07T03:30:18.772Z,59.0142
2023-04-07T03:31:19.331Z,58.8995
2023-04-07T03:32:19.955Z,58.9677
2023-04-07T03:33:20.508Z,59.2498
2023-04-07T03:34:20.996Z,59.5002
2023-04-07T03:35:21.576Z,59.3352
2023-04-07T03:36:22.206Z,59.2873
2023-04-07T03:37:22.737Z,59.5382
2023-04-07T03:38:23.235Z,59.7412
2023-04-07T03:39:23.765Z,59.8409
2023-04-07T03:40:24.272Z,59.8460
2023-04-07T03:41:24.769Z,60.0332
2023-04-07T03:42:25.250Z,60.2462
2023-04-07T03:43:25.770Z,60.2885
2023-04-07T03:44:26.275Z,60.3828
2023-04-07T03:45:26.757Z,60.5205
2023-04-07T03:46:27.474Z,60.7891
2023-04-07T03:47:28.023Z,61.0108
2023-04-07T03:48:29.247Z,60.7624
2023-04-07T03:49:29.985Z,60.6517
2023-04-07T03:50:30.621Z,60.6468
2023-04-07T03:51:31.134Z,60.5289
2023-04-07T03:52:31.609Z,60.4527
2023-04-07T03:53:32.151Z,60.3921
2023-04-07T03:54:32.565Z,60.4432
2023-04-07T03:55:33.085Z,60.3507
2023-04-07T03:56:33.616Z,60.4688
2023-04-07T03:57:34.141Z,60.6395
2023-04-07T03:58:34.625Z,61.1811
2023-04-07T03:59:35.167Z,61.3710
2023-04-07T04:00:35.644Z,60.9789
2023-04-07T04:01:36.202Z,61.1249
2023-04-07T04:02:36.793Z,63.0120
2023-04-07T04:03:37.478Z,65.1056
2023-04-07T04:04:38.187Z,65.8347
2023-04-07T04:05:38.852Z,66.0276
2023-04-07T04:06:39.356Z,65.7432
2023-04-07T04:07:39.826Z,64.8747
2023-04-07T04:08:40.304Z,64.2887
2023-04-07T04:09:40.800Z,64.0222
2023-04-07T04:10:41.296Z,63.5296
2023-04-07T04:11:41.893Z,62.5951
2023-04-07T04:12:42.404Z,61.9799
2023-04-07T04:13:42.920Z,61.9605
2023-04-07T04:14:43.405Z,61.9896
2023-04-07T04:15:43.963Z,62.2965
2023-04-07T04:16:44.427Z,63.0787
2023-04-07T04:17:44.953Z,63.5023
2023-04-07T04:18:45.448Z,63.8057
2023-04-07T04:19:45.944Z,63.5881
2023-04-07T04:20:46.492Z,63.4706
2023-04-07T04:21:46.925Z,62.9233
2023-04-07T04:22:47.401Z,62.7645
2023-04-07T04:23:48.138Z,62.4620
2023-04-07T04:24:48.635Z,61.8296
2023-04-07T04:25:49.177Z,61.5419
2023-04-07T04:26:49.662Z,60.9883
2023-04-07T04:27:50.226Z,60.6603
2023-04-07T04:28:50.712Z,59.7141
2023-04-07T04:29:51.247Z,59.5605
2023-04-07T04:30:51.912Z,59.2220
2023-04-07T04:31:52.408Z,58.5797
2023-04-07T04:32:52.994Z,58.3473
2023-04-07T04:33:53.908Z,58.5198
2023-04-07T04:34:54.720Z,58.3762
2023-04-07T04:35:55.255Z,58.3413
2023-04-07T04:36:55.824Z,59.3627
2023-04-07T04:37:56.339Z,59.9072
2023-04-07T04:38:56.817Z,60.3974
2023-04-07T04:39:57.314Z,60.6417
2023-04-07T04:40:57.822Z,61.0392
2023-04-07T04:41:58.386Z,61.7207
2023-04-07T04:42:58.858Z,61.6826
2023-04-07T04:43:59.354Z,61.7676
2023-04-07T04:44:59.923Z,61.9495
2023-04-07T04:46:00.426Z,62.0446
2023-04-07T04:47:00.922Z,62.2085
2023-04-07T04:48:01.527Z,62.3744
2023-04-07T04:49:02.022Z,62.8054
2023-04-07T04:50:02.511Z,63.0790
2023-04-07T04:51:03.046Z,62.8852
2023-04-07T04:52:03.517Z,63.0072
2023-04-07T04:53:04.022Z,63.2982
2023-04-07T04:54:04.536Z,63.1030
2023-04-07T04:55:05.026Z,63.0529
2023-04-07T04:56:05.599Z,63.3747
2023-04-07T04:57:06.092Z,63.7913
2023-04-07T04:58:06.609Z,64.5558
2023-04-07T04:59:07.087Z,65.1707
2023-04-07T05:00:07.707Z,65.5507
2023-04-07T05:01:08.465Z,65.9356
2023-04-07T05:02:09.042Z,66.4233
2023-04-07T05:03:09.898Z,66.7845
2023-04-07T05:04:11.002Z,66.8741
2023-04-07T05:05:12.039Z,67.0548
2023-04-07T05:06:12.593Z,66.8781
2023-04-07T05:07:13.145Z,66.8768
2023-04-07T05:08:13.604Z,66.9418
2023-04-07T05:09:14.064Z,67.1645
2023-04-07T05:10:14.593Z,67.3375
2023-04-07T05:11:15.103Z,67.4962
2023-04-07T05:12:15.588Z,67.6127
2023-04-07T05:13:16.077Z,67.6977
2023-04-07T05:14:16.617Z,67.8957
2023-04-07T05:15:17.112Z,68.2708
2023-04-07T05:16:17.694Z,68.5562
2023-04-07T05:17:18.380Z,68.3125
2023-04-07T05:18:18.906Z,68.0417
2023-04-07T05:19:19.398Z,67.7668
2023-04-07T05:20:19.946Z,67.5727
2023-04-07T05:21:20.473Z,67.6631
2023-04-07T05:22:20.985Z,67.7850
2023-04-07T05:23:21.541Z,67.4882
2023-04-07T05:24:22.048Z,67.3326
2023-04-07T05:25:22.500Z,67.5481
2023-04-07T05:26:22.980Z,67.7492
2023-04-07T05:27:23.471Z,68.1514
2023-04-07T05:28:24.027Z,68.5281
2023-04-07T05:29:24.556Z,68.3748
2023-04-07T05:30:25.127Z,68.2811
2023-04-07T05:31:25.841Z,67.9454
2023-04-07T05:32:26.362Z,67.7537
2023-04-07T05:33:26.945Z,67.9971
2023-04-07T05:34:27.487Z,67.8160
2023-04-07T05:35:28.028Z,67.7867
2023-04-07T05:36:28.606Z,68.0268
2023-04-07T05:37:29.080Z,67.9758
2023-04-07T05:38:29.659Z,67.8673
2023-04-07T05:39:30.172Z,67.3034
2023-04-07T05:40:30.675Z,67.1956
2023-04-07T05:41:31.173Z,66.8136
2023-04-07T05:42:31.686Z,66.6699
2023-04-07T05:43:32.196Z,66.2122
2023-04-07T05:44:32.678Z,65.9414
2023-04-07T05:45:33.223Z,65.9876
2023-04-07T05:46:33.701Z,66.1543
2023-04-07T05:47:34.229Z,66.0662
2023-04-07T05:48:34.771Z,65.9735
2023-04-07T05:49:35.273Z,65.4807
2023-04-07T05:50:35.859Z,65.2200
2023-04-07T05:51:36.428Z,65.3250
2023-04-07T05:52:36.993Z,65.2587
2023-04-07T05:53:37.532Z,65.0859
2023-04-07T05:54:38.084Z,64.8386
2023-04-07T05:55:38.627Z,65.0517
2023-04-07T05:56:39.134Z,65.6378
2023-04-07T05:57:39.652Z,65.7335
2023-04-07T05:58:40.155Z,65.9819
2023-04-07T05:59:40.655Z,65.6812
2023-04-07T06:00:41.139Z,66.1693
2023-04-07T06:01:41.654Z,66.6283
2023-04-07T06:02:42.255Z,66.3424
2023-04-07T06:03:42.924Z,66.3505
2023-04-07T06:04:43.448Z,66.8383
2023-04-07T06:05:44.041Z,66.7995
2023-04-07T06:06:44.601Z,66.6527
2023-04-07T06:07:45.123Z,66.7161
2023-04-07T06:08:45.706Z,66.7275
2023-04-07T06:09:46.255Z,66.8867
2023-04-07T06:10:46.821Z,67.5462
2023-04-07T06:11:47.385Z,68.1882
2023-04-07T06:12:47.875Z,68.4141
2023-04-07T06:13:48.505Z,68.3868
2023-04-07T06:14:49.209Z,68.0013
2023-04-07T06:15:49.753Z,67.4976
2023-04-07T06:16:50.312Z,67.3421
2023-04-07T06:17:50.857Z,67.3478
2023-04-07T06:18:51.382Z,66.2887
2023-04-07T06:19:51.892Z,66.0658
2023-04-07T06:20:52.352Z,65.9552
2023-04-07T06:21:52.831Z,65.8258
2023-04-07T06:22:53.293Z,65.6825
2023-04-07T06:23:53.749Z,65.5100
2023-04-07T06:24:54.260Z,65.2160
2023-04-07T06:25:54.941Z,64.7807
2023-04-07T06:26:55.483Z,64.6075
2023-04-07T06:27:56.034Z,64.8940
2023-04-07T06:28:56.563Z,65.3202
2023-04-07T06:29:57.015Z,65.7022
2023-04-07T06:30:58.333Z,66.0201
2023-04-07T06:31:57.597Z,65.5727
2023-04-07T06:32:58.202Z,65.3943
2023-04-07T06:33:58.716Z,64.7771
2023-04-07T06:34:59.240Z,63.9819
2023-04-07T06:35:59.755Z,63.7611
2023-04-07T06:37:00.283Z,63.7531
2023-04-07T06:38:00.762Z,63.2315
2023-04-07T06:39:01.366Z,63.1647
2023-04-07T06:40:01.903Z,62.9653
2023-04-07T06:41:02.408Z,62.8854
2023-04-07T06:42:02.995Z,62.4954
2023-04-07T06:43:03.545Z,62.1898
2023-04-07T06:44:04.078Z,61.6417
2023-04-07T06:45:04.622Z,61.6585
2023-04-07T06:46:05.180Z,61.8411
2023-04-07T06:47:05.718Z,61.9151
2023-04-07T06:48:06.299Z,61.7920
2023-04-07T06:49:06.863Z,61.7957
2023-04-07T06:50:07.409Z,61.9904
2023-04-07T06:51:08.016Z,62.1066
2023-04-07T06:52:08.612Z,62.2367
2023-04-07T06:53:09.212Z,62.1391
2023-04-07T06:54:09.764Z,61.7361
2023-04-07T06:55:10.293Z,61.0843
2023-04-07T06:56:10.919Z,60.9247
2023-04-07T06:57:11.526Z,60.9600
2023-04-07T06:58:12.112Z,59.1193
2023-04-07T06:59:12.628Z,60.0612
2023-04-07T07:00:13.194Z,60.1400
2023-04-07T07:01:13.777Z,59.7738
2023-04-07T07:02:14.615Z,59.5631
2023-04-07T07:03:15.759Z,59.2180
2023-04-07T07:04:16.450Z,59.3291
2023-04-07T07:05:17.053Z,59.5389
2023-04-07T07:06:17.558Z,59.3764
2023-04-07T07:07:18.149Z,59.3500
2023-04-07T07:08:18.692Z,58.9605
2023-04-07T07:09:19.211Z,58.7351
2023-04-07T07:10:19.722Z,60.6248
2023-04-07T07:11:20.336Z,64.9170
2023-04-07T07:12:20.974Z,64.4178
2023-04-07T07:13:21.537Z,65.9578
2023-04-07T07:14:22.130Z,65.7752
2023-04-07T07:15:22.715Z,65.2443
2023-04-07T07:16:23.242Z,65.5603
2023-04-07T07:17:23.888Z,65.5991
2023-04-07T07:18:24.577Z,65.6364
2023-04-07T07:19:25.234Z,65.5203
2023-04-07T07:20:26.031Z,65.6256
2023-04-07T07:21:26.857Z,65.3611
2023-04-07T07:22:27.394Z,65.0068
2023-04-07T07:23:27.990Z,65.3468
2023-04-07T07:24:28.778Z,65.8384
2023-04-07T07:25:29.289Z,66.1382
2023-04-07T07:26:29.850Z,66.5448
2023-04-07T07:27:30.381Z,66.4036
2023-04-07T07:28:31.040Z,66.4293
2023-04-07T07:29:31.545Z,66.6588
2023-04-07T07:30:32.139Z,66.6252
2023-04-07T07:31:32.771Z,66.4796
2023-04-07T07:32:33.647Z,66.4584
2023-04-07T07:33:34.136Z,66.5109
2023-04-07T07:34:34.734Z,66.2713
2023-04-07T07:35:35.294Z,65.9640
2023-04-07T07:36:35.814Z,66.0742
2023-04-07T07:37:36.388Z,65.6575
2023-04-07T07:38:37.702Z,65.6128
2023-04-07T07:39:38.337Z,65.9216
2023-04-07T07:40:38.848Z,66.0685
2023-04-07T07:41:39.382Z,66.1624
2023-04-07T07:42:39.916Z,66.0054
2023-04-07T07:43:40.457Z,65.8572
2023-04-07T07:44:41.200Z,65.6410
2023-04-07T07:45:41.726Z,65.0696
2023-04-07T07:46:42.298Z,64.8814
2023-04-07T07:47:43.798Z,65.0187
2023-04-07T07:48:44.252Z,64.6363
2023-04-07T07:49:44.819Z,64.1644
2023-04-07T07:50:45.305Z,63.9436
2023-04-07T07:51:45.831Z,63.8450
2023-04-07T07:52:46.460Z,63.6018
2023-04-07T07:53:47.465Z,63.6544
2023-04-07T07:54:48.363Z,63.9201
2023-04-07T07:55:48.868Z,64.2359
2023-04-07T07:56:49.439Z,64.0977
2023-04-07T07:57:49.922Z,64.1510
2023-04-07T07:58:50.481Z,64.1892
2023-04-07T07:59:51.066Z,64.0975
2023-04-07T08:00:51.682Z,63.8428
2023-04-07T08:01:52.187Z,63.7327
2023-04-07T08:02:52.882Z,64.1820
2023-04-07T08:03:53.739Z,64.6624
2023-04-07T08:04:54.765Z,64.8381
2023-04-07T08:05:55.370Z,64.7733
2023-04-07T08:06:55.938Z,64.6974
2023-04-07T08:07:56.478Z,64.5794
2023-04-07T08:08:57.184Z,64.4303
2023-04-07T08:09:57.815Z,64.5752
2023-04-07T08:10:58.353Z,64.1298
2023-04-07T08:11:59.254Z,63.7184
2023-04-07T08:12:59.935Z,63.8168
2023-04-07T08:14:00.534Z,64.9326
2023-04-07T08:15:01.023Z,66.9026
2023-04-07T08:16:01.651Z,66.9244
2023-04-07T08:17:02.274Z,66.6580
2023-04-07T08:18:02.924Z,66.0397
2023-04-07T08:19:03.543Z,65.7053
2023-04-07T08:20:04.049Z,65.4197
2023-04-07T08:21:04.653Z,65.1636
2023-04-07T08:22:05.332Z,64.8751
2023-04-07T08:23:05.929Z,64.8562
2023-04-07T08:24:06.473Z,64.9373
2023-04-07T08:25:07.091Z,65.0313
2023-04-07T08:26:07.635Z,65.6720
2023-04-07T08:27:08.368Z,65.4351
2023-04-07T08:28:08.929Z,65.1006
2023-04-07T08:29:09.495Z,65.2040
2023-04-07T08:30:10.095Z,64.8881
2023-04-07T08:31:10.673Z,64.8538
2023-04-07T08:32:11.239Z,64.8071
2023-04-07T08:33:11.841Z,64.2825
2023-04-07T08:34:12.368Z,63.9295
2023-04-07T08:35:12.885Z,64.2180
2023-04-07T08:36:13.554Z,65.2693
2023-04-07T08:37:14.070Z,65.3192
2023-04-07T08:38:14.565Z,65.7883
2023-04-07T08:39:15.166Z,65.8178
2023-04-07T08:40:15.723Z,66.0121
2023-04-07T08:41:16.245Z,65.9644
2023-04-07T08:42:16.765Z,65.4005
2023-04-07T08:43:17.278Z,65.5332
2023-04-07T08:44:17.852Z,65.8988
2023-04-07T08:45:18.393Z,66.9728
2023-04-07T08:46:19.006Z,67.4517
2023-04-07T08:47:19.591Z,67.7474
2023-04-07T08:48:20.113Z,67.7317
2023-04-07T08:49:20.656Z,68.0071
2023-04-07T08:50:21.204Z,68.2542
2023-04-07T08:51:21.793Z,68.5974
2023-04-07T08:52:22.357Z,69.1180
2023-04-07T08:53:22.966Z,68.9270
2023-04-07T08:54:23.621Z,69.3845
2023-04-07T08:55:24.183Z,70.0652
2023-04-07T08:56:24.684Z,70.0814
2023-04-07T08:57:25.230Z,70.2939
2023-04-07T08:58:25.818Z,70.4606
2023-04-07T08:59:26.353Z,70.6880
2023-04-07T09:00:26.860Z,70.5925
2023-04-07T09:01:27.436Z,70.6223
2023-04-07T09:02:28.216Z,71.0908
2023-04-07T09:03:28.902Z,70.8385
2023-04-07T09:04:29.557Z,70.4895
2023-04-07T09:05:30.089Z,70.2220
2023-04-07T09:06:30.604Z,70.1792
2023-04-07T09:07:31.222Z,69.9826
2023-04-07T09:08:31.845Z,69.5721
2023-04-07T09:09:32.426Z,69.2309
2023-04-07T09:10:33.160Z,69.8522
2023-04-07T09:11:33.718Z,70.2148
2023-04-07T09:12:34.219Z,69.7358
2023-04-07T09:13:34.770Z,69.1124
2023-04-07T09:14:35.293Z,68.2298
2023-04-07T09:15:38.024Z,68.9454
2023-04-07T09:16:36.951Z,69.8729
2023-04-07T09:17:37.596Z,70.3010
2023-04-07T09:18:38.166Z,70.4936
2023-04-07T09:19:38.732Z,70.7598
2023-04-07T09:20:39.309Z,70.6157
2023-04-07T09:21:39.829Z,69.8507
2023-04-07T09:22:40.365Z,70.4795
2023-04-07T09:23:40.885Z,69.9041
2023-04-07T09:24:41.439Z,69.5163
2023-04-07T09:25:41.994Z,70.1671
2023-04-07T09:26:42.539Z,69.8463
2023-04-07T09:27:42.987Z,69.7780
2023-04-07T09:28:43.583Z,69.0084
2023-04-07T09:29:44.105Z,68.8311
2023-04-07T09:30:44.632Z,69.4503
2023-04-07T09:31:45.258Z,70.1439
2023-04-07T09:32:45.796Z,70.7252
2023-04-07T09:33:46.713Z,70.3412
2023-04-07T09:34:47.497Z,69.6974
2023-04-07T09:35:48.036Z,69.3483
2023-04-07T09:36:48.604Z,70.2870
2023-04-07T09:37:49.106Z,70.4362
2023-04-07T09:38:49.688Z,71.1128
2023-04-07T09:39:50.308Z,71.3553
2023-04-07T09:40:50.845Z,71.6995
2023-04-07T09:41:51.589Z,71.0733
2023-04-07T09:42:52.174Z,70.2132
2023-04-07T09:43:52.807Z,69.3307
2023-04-07T09:44:53.367Z,69.9784
2023-04-07T09:45:54.045Z,70.0630
2023-04-07T09:46:54.685Z,69.8627
2023-04-07T09:47:55.267Z,69.6920
2023-04-07T09:48:55.846Z,69.7100
2023-04-07T09:49:56.396Z,69.9619
2023-04-07T09:50:57.122Z,70.0657
2023-04-07T09:51:57.716Z,70.4041
2023-04-07T09:52:58.268Z,70.9977
2023-04-07T09:53:58.921Z,70.5856
2023-04-07T09:54:59.450Z,70.6404
2023-04-07T09:56:00.085Z,70.2722
2023-04-07T09:57:00.648Z,70.7607
2023-04-07T09:58:01.189Z,71.0932
2023-04-07T09:59:01.770Z,71.3230
2023-04-07T10:00:02.342Z,71.9899
2023-04-07T10:01:02.930Z,72.0570
2023-04-07T10:02:03.615Z,72.5529
2023-04-07T10:03:04.730Z,72.7223
2023-04-07T10:04:05.349Z,72.9096
2023-04-07T10:05:05.887Z,72.8443
2023-04-07T10:06:06.454Z,72.4970
2023-04-07T10:07:06.944Z,72.2332
2023-04-07T10:08:07.500Z,72.1630
2023-04-07T10:09:08.100Z,72.3746
2023-04-07T10:10:08.712Z,72.4760
2023-04-07T10:11:09.246Z,72.0396
2023-04-07T10:12:09.771Z,72.0171
2023-04-07T10:13:10.360Z,71.8137
2023-04-07T10:14:11.040Z,71.7627
2023-04-07T10:15:11.652Z,72.4732
2023-04-07T10:16:12.233Z,72.4674
2023-04-07T10:17:12.755Z,72.7302
2023-04-07T10:18:13.303Z,72.5574
2023-04-07T10:19:13.937Z,72.6488
2023-04-07T10:20:14.446Z,72.7394
2023-04-07T10:21:14.945Z,72.6727
2023-04-07T10:22:15.506Z,72.7590
2023-04-07T10:23:16.030Z,72.6074
2023-04-07T10:24:16.569Z,72.0422
2023-04-07T10:25:17.115Z,71.8524
2023-04-07T10:26:17.650Z,73.0062
2023-04-07T10:27:18.176Z,73.2637
2023-04-07T10:28:18.746Z,73.3583
2023-04-07T10:29:19.312Z,71.9401
2023-04-07T10:30:19.850Z,70.9415
2023-04-07T10:31:20.474Z,71.1089
2023-04-07T10:32:21.012Z,71.4195
2023-04-07T10:33:21.508Z,70.8927
2023-04-07T10:34:22.092Z,72.4025
2023-04-07T10:35:22.672Z,71.0030
2023-04-07T10:36:23.207Z,70.1560
2023-04-07T10:37:23.813Z,70.7513
2023-04-07T10:38:24.372Z,72.4185
2023-04-07T10:39:24.903Z,73.1077
2023-04-07T10:40:25.391Z,74.3901
2023-04-07T10:41:25.918Z,74.3594
2023-04-07T10:42:26.451Z,74.1818
2023-04-07T10:43:26.999Z,74.5897
2023-04-07T10:44:27.513Z,74.8260
2023-04-07T10:45:28.085Z,74.3912
2023-04-07T10:46:28.644Z,73.6943
2023-04-07T10:47:29.198Z,73.2358
2023-04-07T10:48:29.732Z,74.0555
2023-04-07T10:49:30.289Z,74.4162
2023-04-07T10:50:30.869Z,74.6771
2023-04-07T10:51:31.401Z,74.7448
2023-04-07T10:52:31.989Z,75.5580
2023-04-07T10:53:32.529Z,76.3811
2023-04-07T10:54:33.106Z,76.3689
2023-04-07T10:55:33.632Z,75.1101
2023-04-07T10:56:34.201Z,74.5441
2023-04-07T10:57:34.740Z,75.6181
2023-04-07T10:58:35.299Z,75.7694
2023-04-07T10:59:35.865Z,76.1981
2023-04-07T11:00:36.432Z,75.6722
2023-04-07T11:01:37.149Z,75.4934
2023-04-07T11:02:37.936Z,75.6835
2023-04-07T11:03:39.038Z,75.7813
2023-04-07T11:04:40.086Z,76.8595
2023-04-07T11:05:40.740Z,77.1831
2023-04-07T11:06:41.279Z,77.3473
2023-04-07T11:07:41.896Z,77.7859
2023-04-07T11:08:42.425Z,78.7126
2023-04-07T11:09:42.952Z,79.6585
2023-04-07T11:10:43.494Z,79.6536
2023-04-07T11:11:44.029Z,80.5404
2023-04-07T11:12:44.633Z,81.1185
2023-04-07T11:13:45.178Z,81.2805
2023-04-07T11:14:45.704Z,82.1321
2023-04-07T11:15:46.321Z,82.1044
2023-04-07T11:16:46.925Z,82.3501
2023-04-07T11:17:47.608Z,83.2128
2023-04-07T11:18:48.325Z,83.1609
2023-04-07T11:19:49.013Z,83.1287
2023-04-07T11:20:49.674Z,83.3427
2023-04-07T11:21:50.269Z,84.3308
2023-04-07T11:22:50.929Z,84.3400
2023-04-07T11:23:51.729Z,84.5652
2023-04-07T11:24:52.402Z,84.2921
2023-04-07T11:25:53.030Z,84.3319
2023-04-07T11:26:53.655Z,84.7918
2023-04-07T11:27:54.299Z,85.1862
2023-04-07T11:28:54.927Z,85.9950
2023-04-07T11:29:55.540Z,86.2462
2023-04-07T11:30:56.164Z,86.4042
2023-04-07T11:31:56.767Z,86.8297
2023-04-07T11:32:57.414Z,87.3471
2023-04-07T11:33:58.035Z,87.1579
2023-04-07T11:34:58.693Z,87.4632
2023-04-07T11:35:59.372Z,87.7317
2023-04-07T11:36:59.967Z,87.8849
2023-04-07T11:38:00.602Z,88.1331
2023-04-07T11:39:01.258Z,88.9619
2023-04-07T11:40:01.868Z,89.5939
2023-04-07T11:41:02.496Z,89.8453
2023-04-07T11:42:03.176Z,89.1252
2023-04-07T11:43:03.813Z,88.8865
2023-04-07T11:44:04.449Z,88.9317
2023-04-07T11:45:05.999Z,88.8050
2023-04-07T11:46:05.892Z,88.6626
2023-04-07T11:47:06.592Z,88.7926
2023-04-07T11:48:07.237Z,88.6751
2023-04-07T11:49:07.820Z,88.4713
2023-04-07T11:50:08.506Z,88.6665
2023-04-07T11:51:09.129Z,89.1732
2023-04-07T11:52:09.778Z,88.7783
2023-04-07T11:53:10.373Z,88.5365
2023-04-07T11:54:11.133Z,88.1652
2023-04-07T11:55:11.733Z,88.4840
2023-04-07T11:56:12.378Z,88.4779
2023-04-07T11:57:13.208Z,88.3965
2023-04-07T11:58:13.969Z,87.5572
2023-04-07T11:59:14.578Z,88.1446
2023-04-07T12:00:15.273Z,87.8453
2023-04-07T12:01:15.964Z,87.6390
2023-04-07T12:02:16.628Z,87.5545
2023-04-07T12:03:17.434Z,87.4052
2023-04-07T12:04:18.286Z,88.1750
2023-04-07T12:05:19.241Z,88.3936
2023-04-07T12:06:19.950Z,88.5414
2023-04-07T12:07:20.573Z,88.6652
2023-04-07T12:08:21.252Z,88.6582
2023-04-07T12:09:21.876Z,89.2596
2023-04-07T12:10:22.558Z,89.3973
2023-04-07T12:11:23.185Z,89.1341
2023-04-07T12:12:23.852Z,89.5224